createdAt,value
2023-02-21T00:00:45.083Z,1005.3
2023-02-21T00:10:50.940Z,1005.2
2023-02-21T00:20:57.529Z,1005.1
2023-02-21T00:31:04.147Z,1005
2023-02-21T00:41:10.736Z,1005
2023-02-21T00:51:17.276Z,1005.1
2023-02-21T01:01:23.872Z,1005.1
2023-02-21T01:11:30.463Z,1005.1
2023-02-21T01:21:37.044Z,1005.1
2023-02-21T01:31:43.647Z,1005.2
2023-02-21T01:41:50.241Z,1005.3
2023-02-21T01:51:56.798Z,1005.2
2023-02-21T02:02:03.384Z,1005
2023-02-21T02:12:09.978Z,1005
2023-02-21T02:22:15.830Z,1005
2023-02-21T02:32:22.461Z,1005
2023-02-21T02:42:29.016Z,1005
2023-02-21T02:52:35.661Z,1004.9
2023-02-21T03:02:42.267Z,1004.8
2023-02-21T03:12:48.881Z,1004.9
2023-02-21T03:22:55.601Z,1004.9
2023-02-21T03:33:02.198Z,1004.8
2023-02-21T03:43:08.804Z,1004.6
2023-02-21T03:53:15.561Z,1004.6
2023-02-21T04:03:22.135Z,1004.7
2023-02-21T04:13:28.721Z,1004.6
2023-02-21T04:23:35.467Z,1004.6
2023-02-21T04:33:41.348Z,1004.7
2023-02-21T04:43:47.933Z,1004.7
2023-02-21T04:53:54.526Z,1004.6
2023-02-21T05:04:01.084Z,1004.5
2023-02-21T05:14:07.678Z,1004.5
2023-02-21T05:24:14.251Z,1004.5
2023-02-21T05:34:20.844Z,1004.6
2023-02-21T05:44:27.451Z,1004.6
2023-02-21T05:54:34.027Z,1004.6
2023-02-21T06:04:40.616Z,1004.6
2023-02-21T06:14:47.212Z,1004.7
2023-02-21T06:24:53.788Z,1004.6
2023-02-21T06:35:00.402Z,1004.6
2023-02-21T06:45:06.256Z,1004.5
2023-02-21T06:55:12.830Z,1004.6
2023-02-21T07:05:19.432Z,1004.6
2023-02-21T07:15:25.996Z,1004.6
2023-02-21T07:25:32.737Z,1004.6
2023-02-21T07:35:39.177Z,1004.7
2023-02-21T07:45:45.772Z,1004.6
2023-02-21T07:55:52.357Z,1004.6
2023-02-21T08:05:59.037Z,1004.6
2023-02-21T08:26:12.191Z,1004.6
2023-02-21T08:36:19.108Z,1004.6
2023-02-21T08:46:25.705Z,1004.6
2023-02-21T08:56:31.381Z,1004.6
2023-02-21T09:06:37.967Z,1004.6
2023-02-21T09:16:44.538Z,1004.6
2023-02-21T09:26:51.228Z,1004.7
2023-02-21T09:36:57.685Z,1004.6
2023-02-21T09:47:04.304Z,1004.6
2023-02-21T09:57:10.857Z,1004.6
2023-02-21T10:07:17.431Z,1004.6
2023-02-21T10:17:23.997Z,1004.6
2023-02-21T10:27:30.609Z,1004.6
2023-02-21T10:37:37.166Z,1004.6
2023-02-21T10:47:43.761Z,1004.6
2023-02-21T10:57:50.328Z,1004.6
2023-02-21T11:07:56.180Z,1004.5
2023-02-21T11:18:02.767Z,1004.4
2023-02-21T11:28:09.340Z,1004.2
2023-02-21T11:38:15.951Z,1004
2023-02-21T11:48:22.529Z,1003.9
2023-02-21T11:58:29.142Z,1003.7
2023-02-21T12:08:35.654Z,1003.5
2023-02-21T12:18:42.219Z,1003.4
2023-02-21T12:28:48.843Z,1003.2
2023-02-21T12:38:55.395Z,1003.1
2023-02-21T12:49:02.002Z,1002.9
2023-02-21T12:59:08.542Z,1002.8
2023-02-21T13:09:15.149Z,1002.7
2023-02-21T13:29:27.616Z,1002.4
2023-02-21T13:39:33.498Z,1002.2
2023-02-21T13:49:40.119Z,1002
2023-02-21T13:59:46.697Z,1001.9
2023-02-21T14:09:53.251Z,1001.8
2023-02-21T14:19:59.829Z,1001.7
2023-02-21T14:30:06.422Z,1001.6
2023-02-21T14:40:12.989Z,1001.5
2023-02-21T14:50:19.626Z,1001.4
2023-02-21T15:00:26.182Z,1001.3
2023-02-21T15:10:32.758Z,1001.2
2023-02-21T15:20:39.322Z,1001.2
2023-02-21T15:30:45.913Z,1001.1
2023-02-21T15:40:52.513Z,1001.1
2023-02-21T15:50:58.365Z,1001
2023-02-21T16:01:04.913Z,1001
2023-02-21T16:11:11.499Z,1001
2023-02-21T16:21:18.116Z,1000.9
2023-02-21T16:31:24.668Z,1000.9
2023-02-21T16:41:31.282Z,1000.9
2023-02-21T16:51:37.876Z,1000.9
2023-02-21T17:01:44.415Z,1000.9
2023-02-21T17:11:50.995Z,1000.9
2023-02-21T17:21:57.556Z,1000.9
2023-02-21T17:32:04.150Z,1001
2023-02-21T17:42:10.722Z,1001
2023-02-21T17:52:17.510Z,1001.1
2023-02-21T18:02:23.290Z,1001.1
2023-02-21T18:12:29.877Z,1001.1
2023-02-21T18:22:36.477Z,1001.2
2023-02-21T18:32:43.033Z,1001.2
2023-02-21T18:42:49.637Z,1001.2
2023-02-21T18:52:56.237Z,1001.1
2023-02-21T19:03:02.797Z,1001.1
2023-02-21T19:13:09.358Z,1001.1
2023-02-21T19:23:15.943Z,1001.1
2023-02-21T19:33:22.531Z,1001
2023-02-21T19:43:29.097Z,1001
2023-02-21T19:53:35.702Z,1001
2023-02-21T20:03:42.282Z,1001
2023-02-21T20:13:48.118Z,1001
2023-02-21T20:23:54.679Z,1001
2023-02-21T20:34:01.274Z,1001
2023-02-21T20:44:07.829Z,1001
2023-02-21T20:54:14.422Z,1001
2023-02-21T21:04:20.990Z,1001
2023-02-21T21:14:27.582Z,1001
2023-02-21T21:24:34.148Z,1001
2023-02-21T21:34:40.751Z,1001
2023-02-21T21:44:47.307Z,1001
2023-02-21T21:54:53.890Z,1000.9
2023-02-21T22:05:00.480Z,1000.9
2023-02-21T22:15:07.054Z,1000.8
2023-02-21T22:25:12.900Z,1000.8
2023-02-21T22:35:19.530Z,1000.7
2023-02-21T22:45:26.078Z,1000.7
2023-02-21T22:55:32.666Z,1000.7
2023-02-21T23:05:38.536Z,1000.6
2023-02-21T23:15:44.394Z,1000.6
2023-02-21T23:25:50.980Z,1000.5
2023-02-21T23:35:57.589Z,1000.5
2023-02-21T23:46:04.218Z,1000.4
2023-02-21T23:56:10.762Z,1000.4
